Time;durP1;ratioP1;P1;durP2;ratioP2;P2;SDS_P1;SDS_P2;PMS_P1;PMS_P2;Temp;Humidity;BMP_temperature;BMP_pressure;BME280_temperature;BME280_humidity;BME280_pressure;Samples;Min_cycle;Max_cycle;Signal;HPM_P1;HPM_P2
2023/01/16 00:00:54;;;;;;;2.60;1.20;;;;;;;;;;5023126;28;20669;-74
2023/01/16 00:03:20;;;;;;;1.70;1.10;;;;;;;;;;5022359;28;21324;-77
2023/01/16 00:05:47;;;;;;;5.57;1.50;;;;;;;;;;5004397;28;20183;-80
2023/01/16 00:08:13;;;;;;;4.07;1.80;;;;;;;;;;5024944;28;20183;-73
2023/01/16 00:10:39;;;;;;;4.90;1.40;;;;;;;;;;5020620;28;20179;-73
2023/01/16 00:13:06;;;;;;;6.27;1.60;;;;;;;;;;5021876;28;20226;-73
2023/01/16 00:15:33;;;;;;;3.80;1.57;;;;;;;;;;5021621;28;20194;-73
2023/01/16 00:17:59;;;;;;;4.77;1.60;;;;;;;;;;5016075;28;20236;-73
2023/01/16 00:20:25;;;;;;;5.80;1.70;;;;;;;;;;5015609;28;20191;-73
2023/01/16 00:22:51;;;;;;;6.03;1.97;;;;;;;;;;5020158;28;20269;-73
2023/01/16 00:25:18;;;;;;;4.73;1.50;;;;;;;;;;5017794;28;20237;-73
2023/01/16 00:27:44;;;;;;;2.87;1.40;;;;;;;;;;5022438;28;20237;-74
2023/01/16 00:30:10;;;;;;;5.67;1.63;;;;;;;;;;5018288;28;20280;-74
2023/01/16 00:32:36;;;;;;;4.03;1.40;;;;;;;;;;5019649;28;20199;-74
2023/01/16 00:35:03;;;;;;;3.70;1.40;;;;;;;;;;5020783;28;20197;-74
2023/01/16 00:37:29;;;;;;;4.60;1.40;;;;;;;;;;5016755;28;20190;-74
2023/01/16 00:39:56;;;;;;;4.37;1.40;;;;;;;;;;5019269;28;20218;-74
2023/01/16 00:42:22;;;;;;;5.17;1.93;;;;;;;;;;5025304;28;20238;-74
2023/01/16 00:44:48;;;;;;;3.70;1.40;;;;;;;;;;5026188;28;20171;-74
2023/01/16 00:47:14;;;;;;;5.27;1.50;;;;;;;;;;5021524;28;20245;-74
2023/01/16 00:49:41;;;;;;;6.60;1.50;;;;;;;;;;5019698;28;20662;-74
2023/01/16 00:52:07;;;;;;;3.87;1.30;;;;;;;;;;5005782;28;20233;-74
2023/01/16 00:54:33;;;;;;;1.93;1.33;;;;;;;;;;5022962;28;20187;-74
2023/01/16 00:56:59;;;;;;;2.37;1.10;;;;;;;;;;5020426;28;20190;-74
2023/01/16 00:59:25;;;;;;;8.27;1.90;;;;;;;;;;5023789;28;20242;-74
2023/01/16 01:01:52;;;;;;;4.70;1.87;;;;;;;;;;5021544;28;20183;-74
2023/01/16 01:04:18;;;;;;;3.47;1.27;;;;;;;;;;5020001;28;20193;-74
2023/01/16 01:06:44;;;;;;;2.97;1.10;;;;;;;;;;5018208;28;20200;-74
2023/01/16 01:09:10;;;;;;;2.60;1.40;;;;;;;;;;5020349;28;20194;-74
2023/01/16 01:11:36;;;;;;;4.17;1.60;;;;;;;;;;5021123;28;20198;-74
2023/01/16 01:14:02;;;;;;;3.27;1.33;;;;;;;;;;5016128;28;20285;-74
2023/01/16 01:16:29;;;;;;;4.87;1.40;;;;;;;;;;5020270;28;20618;-74
2023/01/16 01:18:55;;;;;;;3.60;1.40;;;;;;;;;;5011703;28;20708;-74
2023/01/16 01:21:21;;;;;;;4.33;1.63;;;;;;;;;;5017089;28;20179;-74
2023/01/16 01:23:47;;;;;;;12.80;5.57;;;;;;;;;;5018812;28;20195;-74
2023/01/16 01:26:16;;;;;;;4.97;1.70;;;;;;;;;;5014854;28;20176;-74
2023/01/16 01:28:42;;;;;;;3.40;1.60;;;;;;;;;;5019892;28;20920;-74
2023/01/16 01:31:10;;;;;;;5.47;2.30;;;;;;;;;;5019447;28;20187;-74
2023/01/16 01:33:36;;;;;;;4.70;1.60;;;;;;;;;;5020438;28;20194;-74
2023/01/16 01:36:03;;;;;;;3.93;1.40;;;;;;;;;;5015028;28;20236;-74
2023/01/16 01:38:29;;;;;;;3.90;2.07;;;;;;;;;;5018007;28;20773;-74
2023/01/16 01:40:55;;;;;;;3.50;1.50;;;;;;;;;;5018313;28;20241;-74
2023/01/16 01:43:21;;;;;;;5.47;1.50;;;;;;;;;;5021091;28;20190;-74
2023/01/16 01:45:51;;;;;;;2.97;1.30;;;;;;;;;;5018355;28;20178;-74
2023/01/16 01:48:25;;;;;;;4.03;1.50;;;;;;;;;;5020082;28;20591;-74
2023/01/16 01:50:51;;;;;;;2.70;1.23;;;;;;;;;;5036290;28;20245;-74
2023/01/16 01:53:33;;;;;;;3.23;1.30;;;;;;;;;;5019437;28;20674;-74
2023/01/16 01:56:01;;;;;;;4.83;1.60;;;;;;;;;;5021011;28;20182;-74
2023/01/16 01:58:28;;;;;;;3.80;1.30;;;;;;;;;;5017474;28;20236;-74
2023/01/16 02:00:57;;;;;;;3.97;1.30;;;;;;;;;;5012997;28;20206;-74
2023/01/16 02:03:42;;;;;;;5.50;1.43;;;;;;;;;;5021266;28;20702;-73
2023/01/16 02:06:13;;;;;;;2.83;1.23;;;;;;;;;;5025385;28;20237;-74
2023/01/16 02:08:44;;;;;;;9.03;4.10;;;;;;;;;;5020484;28;20188;-74
2023/01/16 02:11:25;;;;;;;5.53;1.77;;;;;;;;;;5038886;28;20218;-74
2023/01/16 02:13:55;;;;;;;6.00;2.43;;;;;;;;;;5018674;28;20202;-74
2023/01/16 02:19:16;;;;;;;3.33;1.30;;;;;;;;;;5017395;28;20293;-74
2023/01/16 02:21:43;;;;;;;2.97;1.30;;;;;;;;;;5018662;28;20181;-74
2023/01/16 02:24:32;;;;;;;6.13;1.40;;;;;;;;;;5018875;28;20189;-74
2023/01/16 02:27:21;;;;;;;4.37;1.63;;;;;;;;;;5015848;28;20313;-74
2023/01/16 02:29:53;;;;;;;6.30;1.97;;;;;;;;;;5019308;28;20654;-74
2023/01/16 02:32:29;;;;;;;4.93;1.60;;;;;;;;;;5017234;28;20295;-74
2023/01/16 02:35:19;;;;;;;4.53;1.60;;;;;;;;;;5016192;28;20183;-74
2023/01/16 02:37:50;;;;;;;3.83;1.50;;;;;;;;;;5018724;28;20197;-74
2023/01/16 02:40:31;;;;;;;5.17;1.33;;;;;;;;;;5016561;28;20202;-74
2023/01/16 02:43:03;;;;;;;3.37;1.30;;;;;;;;;;5038013;28;20202;-74
2023/01/16 02:45:41;;;;;;;2.80;1.30;;;;;;;;;;5017785;28;20647;-74
2023/01/16 02:48:27;;;;;;;4.10;1.40;;;;;;;;;;5020679;28;20249;-74
2023/01/16 02:50:57;;;;;;;4.53;1.33;;;;;;;;;;5012197;28;20666;-74
2023/01/16 02:53:29;;;;;;;2.90;1.20;;;;;;;;;;5018553;28;21026;-74
2023/01/16 02:55:57;;;;;;;4.70;1.50;;;;;;;;;;5019925;28;20272;-74
2023/01/16 02:58:24;;;;;;;4.67;1.30;;;;;;;;;;5017553;28;21146;-74
2023/01/16 03:00:52;;;;;;;2.07;1.10;;;;;;;;;;5016778;28;20177;-74
2023/01/16 03:03:26;;;;;;;3.67;1.57;;;;;;;;;;5016769;28;20206;-74
2023/01/16 03:05:56;;;;;;;3.77;1.20;;;;;;;;;;5019207;28;20185;-74
2023/01/16 03:08:30;;;;;;;2.83;1.33;;;;;;;;;;5016760;28;20182;-74
2023/01/16 03:11:01;;;;;;;3.17;1.20;;;;;;;;;;5017933;28;20170;-74
2023/01/16 03:13:36;;;;;;;3.07;1.20;;;;;;;;;;5017979;28;20203;-74
2023/01/16 03:16:06;;;;;;;2.60;1.20;;;;;;;;;;5021070;28;20185;-74
2023/01/16 03:18:58;;;;;;;2.07;1.13;;;;;;;;;;5020578;28;20187;-74
2023/01/16 03:21:54;;;;;;;3.17;1.10;;;;;;;;;;5017550;28;20221;-74
2023/01/16 03:24:28;;;;;;;3.47;1.33;;;;;;;;;;5021105;28;20181;-74
2023/01/16 03:27:11;;;;;;;3.63;1.30;;;;;;;;;;5022665;28;20178;-74
2023/01/16 03:29:44;;;;;;;2.10;1.10;;;;;;;;;;5029229;28;20241;-74
2023/01/16 03:32:21;;;;;;;5.20;1.40;;;;;;;;;;5027732;28;20230;-74
2023/01/16 03:34:47;;;;;;;4.63;1.20;;;;;;;;;;5013500;28;20179;-74
2023/01/16 03:37:19;;;;;;;3.97;1.50;;;;;;;;;;5016811;28;20607;-74
2023/01/16 03:39:48;;;;;;;3.70;1.17;;;;;;;;;;5018982;28;20691;-74
2023/01/16 03:42:17;;;;;;;3.50;1.30;;;;;;;;;;5019395;28;20195;-74
2023/01/16 03:44:49;;;;;;;3.00;1.10;;;;;;;;;;5024491;28;20175;-74
2023/01/16 03:47:20;;;;;;;2.87;1.20;;;;;;;;;;5025824;28;20176;-74
2023/01/16 03:49:49;;;;;;;4.67;1.33;;;;;;;;;;5024847;28;20179;-74
2023/01/16 03:52:18;;;;;;;4.00;1.27;;;;;;;;;;5042055;28;20268;-74
2023/01/16 03:54:59;;;;;;;4.93;1.10;;;;;;;;;;5019272;28;20171;-74
2023/01/16 03:57:32;;;;;;;4.30;1.40;;;;;;;;;;5023355;28;20188;-75
2023/01/16 04:00:00;;;;;;;3.10;1.13;;;;;;;;;;5017871;28;20583;-74
2023/01/16 04:02:29;;;;;;;4.87;1.30;;;;;;;;;;5023646;28;20214;-74
2023/01/16 04:05:15;;;;;;;4.00;1.23;;;;;;;;;;5025874;28;20720;-74
2023/01/16 04:07:44;;;;;;;4.23;1.60;;;;;;;;;;5021184;28;20199;-74
2023/01/16 04:10:13;;;;;;;2.53;1.30;;;;;;;;;;5019846;28;20776;-74
2023/01/16 04:12:44;;;;;;;4.27;1.20;;;;;;;;;;5028229;28;20942;-74
2023/01/16 04:15:10;;;;;;;3.87;1.07;;;;;;;;;;5022566;28;20632;-74
2023/01/16 04:17:38;;;;;;;4.73;1.20;;;;;;;;;;5015811;28;20187;-74
2023/01/16 04:20:05;;;;;;;3.87;1.20;;;;;;;;;;5021164;28;20684;-74
2023/01/16 04:22:32;;;;;;;2.43;1.17;;;;;;;;;;5021237;28;20286;-74
2023/01/16 04:24:59;;;;;;;2.73;1.20;;;;;;;;;;5019169;28;20677;-74
2023/01/16 04:27:25;;;;;;;8.90;5.30;;;;;;;;;;5022247;28;20666;-74
2023/01/16 04:29:52;;;;;;;5.73;3.03;;;;;;;;;;5024287;28;20265;-74
2023/01/16 04:32:18;;;;;;;4.13;1.70;;;;;;;;;;5024738;28;20285;-74
2023/01/16 04:34:44;;;;;;;4.23;1.40;;;;;;;;;;5019691;28;20191;-74
2023/01/16 04:37:19;;;;;;;2.67;1.40;;;;;;;;;;5022352;28;20217;-74
2023/01/16 04:39:47;;;;;;;3.13;1.27;;;;;;;;;;5023767;28;20241;-74
2023/01/16 04:42:13;;;;;;;4.37;1.40;;;;;;;;;;5023850;28;20739;-74
2023/01/16 04:44:39;;;;;;;4.67;1.83;;;;;;;;;;5019513;28;20233;-74
2023/01/16 04:47:06;;;;;;;3.30;1.20;;;;;;;;;;5019801;28;20183;-74
2023/01/16 04:49:32;;;;;;;1.80;1.00;;;;;;;;;;5024526;28;20240;-74
2023/01/16 04:51:59;;;;;;;1.97;0.90;;;;;;;;;;5021938;28;20207;-74
2023/01/16 04:54:25;;;;;;;3.47;1.23;;;;;;;;;;5016531;28;20191;-74
2023/01/16 04:56:51;;;;;;;3.20;1.10;;;;;;;;;;5018452;28;20189;-74
2023/01/16 04:59:18;;;;;;;3.57;1.10;;;;;;;;;;5018570;28;20199;-74
2023/01/16 05:01:44;;;;;;;5.77;1.27;;;;;;;;;;5019382;28;20549;-74
2023/01/16 05:04:12;;;;;;;2.30;1.10;;;;;;;;;;5021826;28;20214;-74
2023/01/16 05:06:38;;;;;;;2.87;1.10;;;;;;;;;;5021772;28;20178;-74
2023/01/16 05:09:05;;;;;;;2.27;1.03;;;;;;;;;;5021129;28;20650;-74
2023/01/16 05:11:31;;;;;;;2.23;0.90;;;;;;;;;;5021963;28;20193;-74
2023/01/16 05:13:58;;;;;;;3.20;0.83;;;;;;;;;;5006085;28;20227;-74
2023/01/16 05:16:25;;;;;;;2.97;1.00;;;;;;;;;;5018079;28;20186;-74
2023/01/16 05:18:51;;;;;;;2.77;0.90;;;;;;;;;;5020749;28;20750;-74
2023/01/16 05:21:17;;;;;;;4.40;0.97;;;;;;;;;;5017206;28;20175;-74
2023/01/16 05:23:43;;;;;;;2.97;1.10;;;;;;;;;;5020764;28;20214;-75
2023/01/16 05:26:10;;;;;;;3.70;1.27;;;;;;;;;;5004149;28;20195;-74
2023/01/16 05:28:36;;;;;;;3.13;1.10;;;;;;;;;;5020258;28;20191;-74
2023/01/16 05:31:03;;;;;;;3.60;1.10;;;;;;;;;;5020879;28;20229;-74
2023/01/16 05:33:29;;;;;;;2.93;1.00;;;;;;;;;;5021130;28;20206;-75
2023/01/16 05:35:56;;;;;;;4.07;1.10;;;;;;;;;;5021631;28;20196;-74
2023/01/16 05:38:22;;;;;;;2.63;0.90;;;;;;;;;;5022501;28;20185;-74
2023/01/16 05:40:48;;;;;;;3.40;1.17;;;;;;;;;;5021212;28;20213;-74
2023/01/16 05:43:15;;;;;;;3.30;1.08;;;;;;;;;;5017962;28;20427;-74
2023/01/16 05:45:41;;;;;;;4.50;1.33;;;;;;;;;;5019078;28;20191;-74
2023/01/16 05:48:08;;;;;;;2.97;1.00;;;;;;;;;;5020670;28;20190;-74
2023/01/16 05:50:34;;;;;;;3.30;1.10;;;;;;;;;;5019382;28;20178;-74
2023/01/16 05:53:00;;;;;;;4.80;1.17;;;;;;;;;;5019687;28;20258;-74
2023/01/16 05:55:26;;;;;;;4.73;1.17;;;;;;;;;;5021426;28;20186;-74
2023/01/16 05:57:53;;;;;;;1.73;1.20;;;;;;;;;;5020729;28;20182;-74
2023/01/16 06:00:19;;;;;;;4.10;1.00;;;;;;;;;;5020120;28;20210;-74
2023/01/16 06:02:46;;;;;;;3.87;2.17;;;;;;;;;;5017530;28;20203;-74
2023/01/16 06:05:13;;;;;;;3.63;1.20;;;;;;;;;;5019049;28;20178;-75
2023/01/16 06:07:39;;;;;;;2.67;1.20;;;;;;;;;;5018365;28;21033;-74
2023/01/16 06:10:05;;;;;;;3.13;1.00;;;;;;;;;;5020048;28;20189;-74
2023/01/16 06:12:31;;;;;;;3.72;1.08;;;;;;;;;;5016289;28;20448;-74
2023/01/16 06:14:58;;;;;;;3.63;1.10;;;;;;;;;;5018924;28;20183;-74
2023/01/16 06:17:24;;;;;;;3.13;1.00;;;;;;;;;;5022447;28;20201;-74
2023/01/16 06:19:50;;;;;;;4.90;1.30;;;;;;;;;;5017974;28;20211;-74
2023/01/16 06:22:16;;;;;;;3.50;0.90;;;;;;;;;;5017591;28;20233;-74
2023/01/16 06:24:43;;;;;;;2.60;1.25;;;;;;;;;;5020230;28;20433;-74
2023/01/16 06:27:09;;;;;;;3.28;1.40;;;;;;;;;;5018818;28;20486;-74
2023/01/16 06:29:36;;;;;;;2.77;1.27;;;;;;;;;;5020526;28;20747;-74
2023/01/16 06:32:02;;;;;;;2.67;1.10;;;;;;;;;;5017714;28;20564;-74
2023/01/16 06:34:28;;;;;;;4.00;1.00;;;;;;;;;;5019607;28;20183;-74
2023/01/16 06:36:54;;;;;;;2.77;1.10;;;;;;;;;;5020590;28;21124;-74
2023/01/16 06:39:20;;;;;;;2.57;1.00;;;;;;;;;;5018676;28;20488;-75
2023/01/16 06:41:46;;;;;;;1.83;0.83;;;;;;;;;;5001299;28;20218;-74
2023/01/16 06:44:13;;;;;;;2.20;0.87;;;;;;;;;;5017854;28;20183;-76
2023/01/16 06:46:39;;;;;;;2.63;1.13;;;;;;;;;;5017429;28;20707;-76
2023/01/16 06:49:05;;;;;;;4.20;1.77;;;;;;;;;;5018171;28;20182;-76
2023/01/16 06:51:31;;;;;;;6.53;3.47;;;;;;;;;;5014571;28;20435;-76
2023/01/16 06:53:57;;;;;;;3.90;1.67;;;;;;;;;;5014082;28;20223;-79
2023/01/16 06:56:24;;;;;;;2.80;1.57;;;;;;;;;;4991341;28;20225;-78
2023/01/16 06:58:50;;;;;;;2.80;1.10;;;;;;;;;;5028242;28;20222;-79
2023/01/16 07:01:16;;;;;;;2.57;1.13;;;;;;;;;;5021895;28;20539;-78
2023/01/16 07:03:43;;;;;;;2.90;1.00;;;;;;;;;;5020083;28;20202;-78
2023/01/16 07:06:09;;;;;;;2.70;1.00;;;;;;;;;;5016110;28;20345;-76
2023/01/16 07:08:35;;;;;;;2.47;0.90;;;;;;;;;;5016179;28;20617;-75
2023/01/16 07:11:01;;;;;;;3.87;2.00;;;;;;;;;;5019228;28;20214;-75
2023/01/16 07:13:28;;;;;;;3.10;1.00;;;;;;;;;;5014051;28;20286;-75
2023/01/16 07:24:24;;;;;;;3.00;1.13;;;;;;;;;;5018648;28;20226;-74
2023/01/16 07:26:57;;;;;;;2.97;1.37;;;;;;;;;;5017792;28;20186;-74
2023/01/16 07:29:23;;;;;;;2.30;1.20;;;;;;;;;;5019054;28;20195;-74
2023/01/16 07:31:50;;;;;;;2.57;1.13;;;;;;;;;;5017219;28;20186;-74
2023/01/16 07:34:16;;;;;;;5.37;1.30;;;;;;;;;;5017487;28;20183;-75
2023/01/16 07:36:42;;;;;;;3.57;1.30;;;;;;;;;;5016226;28;20182;-74
2023/01/16 07:39:08;;;;;;;2.60;1.30;;;;;;;;;;5016625;28;20202;-75
2023/01/16 07:41:34;;;;;;;4.50;1.30;;;;;;;;;;5016020;28;21735;-74
2023/01/16 07:44:00;;;;;;;3.43;1.47;;;;;;;;;;5019721;28;20217;-75
2023/01/16 07:46:27;;;;;;;3.30;1.20;;;;;;;;;;5017332;28;20179;-75
2023/01/16 07:48:55;;;;;;;2.60;1.30;;;;;;;;;;5016596;28;20218;-74
2023/01/16 07:51:21;;;;;;;2.10;0.97;;;;;;;;;;5015272;28;20218;-75
2023/01/16 07:53:47;;;;;;;3.90;1.27;;;;;;;;;;5016410;28;20202;-75
2023/01/16 07:56:13;;;;;;;3.30;1.10;;;;;;;;;;5002990;28;20249;-74
2023/01/16 07:58:41;;;;;;;3.27;0.90;;;;;;;;;;5021449;28;20221;-74
2023/01/16 08:01:07;;;;;;;5.43;1.47;;;;;;;;;;5015218;28;20270;-74
2023/01/16 08:03:34;;;;;;;2.80;1.43;;;;;;;;;;5017890;28;20455;-75
2023/01/16 08:06:02;;;;;;;3.10;1.37;;;;;;;;;;5017947;28;20688;-74
2023/01/16 08:08:28;;;;;;;6.97;1.80;;;;;;;;;;5016341;28;20179;-74
2023/01/16 08:10:59;;;;;;;3.67;1.30;;;;;;;;;;4986173;28;20187;-74
2023/01/16 08:13:26;;;;;;;1.57;0.87;;;;;;;;;;5016926;28;20232;-75
2023/01/16 08:15:52;;;;;;;2.97;1.53;;;;;;;;;;5018582;28;20301;-75
2023/01/16 08:18:19;;;;;;;2.43;1.20;;;;;;;;;;5018127;28;20539;-74
2023/01/16 08:20:46;;;;;;;2.40;1.10;;;;;;;;;;5020966;28;20195;-74
2023/01/16 08:23:12;;;;;;;2.10;1.10;;;;;;;;;;5018867;28;20279;-74
2023/01/16 08:25:39;;;;;;;2.77;1.00;;;;;;;;;;5019367;28;20186;-75
2023/01/16 08:28:05;;;;;;;1.43;1.00;;;;;;;;;;5016801;28;20225;-74
2023/01/16 08:30:31;;;;;;;1.90;1.00;;;;;;;;;;5020120;28;21065;-75
2023/01/16 08:32:59;;;;;;;3.87;1.10;;;;;;;;;;5019660;28;20206;-74
2023/01/16 08:35:25;;;;;;;3.33;0.90;;;;;;;;;;5022754;28;20187;-74
2023/01/16 08:37:51;;;;;;;3.00;0.93;;;;;;;;;;5018000;28;20174;-75
2023/01/16 08:40:18;;;;;;;1.70;0.90;;;;;;;;;;5020400;28;20203;-74
2023/01/16 08:51:22;;;;;;;5.07;3.10;;;;;;;;;;5019843;28;20241;-75
2023/01/16 08:53:47;;;;;;;5.70;3.80;;;;;;;;;;5017664;28;20213;-74
2023/01/16 08:56:13;;;;;;;3.70;1.80;;;;;;;;;;5002897;28;20233;-75
2023/01/16 08:58:40;;;;;;;5.87;3.80;;;;;;;;;;5020476;28;20175;-75
2023/01/16 09:01:06;;;;;;;6.10;3.90;;;;;;;;;;5020339;28;20742;-75
2023/01/16 09:03:34;;;;;;;3.57;1.77;;;;;;;;;;5019614;28;20265;-74
2023/01/16 09:06:00;;;;;;;3.33;1.47;;;;;;;;;;4993856;28;20233;-75
2023/01/16 09:08:26;;;;;;;4.73;3.00;;;;;;;;;;5021874;28;20552;-74
2023/01/16 09:13:50;;;;;;;9.23;4.70;;;;;;;;;;5019748;28;20222;-74
2023/01/16 09:16:21;;;;;;;4.00;2.13;;;;;;;;;;5019890;28;20178;-75
2023/01/16 09:18:47;;;;;;;2.90;1.60;;;;;;;;;;5017912;28;20297;-74
2023/01/16 09:21:14;;;;;;;6.90;4.03;;;;;;;;;;5019831;28;20191;-74
2023/01/16 09:23:40;;;;;;;4.33;2.50;;;;;;;;;;5019559;28;20205;-74
2023/01/16 09:26:07;;;;;;;4.03;2.43;;;;;;;;;;5020797;28;20653;-74
2023/01/16 09:28:33;;;;;;;2.40;1.10;;;;;;;;;;4987330;28;20657;-74
2023/01/16 09:30:59;;;;;;;3.20;1.80;;;;;;;;;;5003876;28;20809;-75
2023/01/16 09:33:26;;;;;;;2.90;1.47;;;;;;;;;;5018735;28;20206;-75
2023/01/16 09:35:52;;;;;;;6.30;3.47;;;;;;;;;;5018814;28;20633;-74
2023/01/16 09:38:18;;;;;;;16.60;7.47;;;;;;;;;;5004176;28;20176;-74
2023/01/16 09:40:49;;;;;;;13.73;7.50;;;;;;;;;;4985616;28;20597;-75
2023/01/16 09:43:38;;;;;;;10.53;4.13;;;;;;;;;;4985613;28;20210;-75
2023/01/16 09:46:15;;;;;;;11.47;5.03;;;;;;;;;;5004973;28;20182;-74
2023/01/16 09:48:55;;;;;;;9.87;4.73;;;;;;;;;;5023599;28;20775;-75
2023/01/16 09:51:31;;;;;;;13.03;5.10;;;;;;;;;;5018553;28;20178;-77
2023/01/16 09:59:54;;;;;;;4.07;2.20;;;;;;;;;;5024120;28;20241;-77
2023/01/16 10:02:22;;;;;;;4.53;2.13;;;;;;;;;;5023397;28;20267;-78
2023/01/16 10:04:49;;;;;;;4.17;1.70;;;;;;;;;;4994026;28;20618;-80
2023/01/16 10:07:35;;;;;;;3.13;1.77;;;;;;;;;;4988642;28;20183;-79
2023/01/16 10:10:10;;;;;;;8.13;3.43;;;;;;;;;;5005607;28;20209;-79
2023/01/16 10:12:39;;;;;;;5.27;2.40;;;;;;;;;;5002497;28;20592;-76
2023/01/16 10:15:19;;;;;;;6.93;2.30;;;;;;;;;;5020805;28;20634;-73
2023/01/16 10:17:45;;;;;;;5.30;2.17;;;;;;;;;;5018536;28;20281;-73
2023/01/16 10:20:12;;;;;;;3.40;1.80;;;;;;;;;;5014188;28;20229;-73
2023/01/16 10:22:44;;;;;;;3.77;2.10;;;;;;;;;;5016700;28;20198;-73
2023/01/16 10:25:24;;;;;;;4.77;2.10;;;;;;;;;;5019011;28;20681;-73
2023/01/16 10:28:03;;;;;;;6.87;3.50;;;;;;;;;;5014760;28;20174;-73
2023/01/16 10:30:44;;;;;;;3.00;1.77;;;;;;;;;;5018847;28;20205;-73
2023/01/16 10:33:16;;;;;;;3.50;1.60;;;;;;;;;;5019062;28;21516;-73
2023/01/16 10:35:44;;;;;;;3.77;2.27;;;;;;;;;;5016514;28;20245;-74
2023/01/16 10:38:13;;;;;;;5.20;2.40;;;;;;;;;;5019090;28;20790;-73
2023/01/16 10:40:41;;;;;;;6.70;2.40;;;;;;;;;;5019449;28;20206;-73
2023/01/16 10:51:39;;;;;;;5.57;2.10;;;;;;;;;;5019508;28;20266;-73
2023/01/16 10:54:05;;;;;;;3.63;1.83;;;;;;;;;;5019053;28;20214;-73
2023/01/16 10:56:33;;;;;;;3.27;1.90;;;;;;;;;;5021517;28;20599;-73
2023/01/16 10:58:59;;;;;;;4.23;2.10;;;;;;;;;;5016035;28;20218;-73
2023/01/16 11:01:26;;;;;;;3.50;1.70;;;;;;;;;;5019224;28;20186;-73
2023/01/16 11:03:57;;;;;;;2.37;1.70;;;;;;;;;;5019542;28;20209;-73
2023/01/16 11:06:24;;;;;;;2.83;1.90;;;;;;;;;;5017109;28;20214;-73
2023/01/16 11:09:26;;;;;;;3.20;1.70;;;;;;;;;;5022049;28;20193;-74
2023/01/16 11:20:26;;;;;;;3.73;1.60;;;;;;;;;;5017298;28;20218;-73
2023/01/16 11:22:59;;;;;;;3.90;1.90;;;;;;;;;;5002743;28;20198;-73
2023/01/16 11:25:29;;;;;;;2.43;1.50;;;;;;;;;;5017939;28;20854;-73
2023/01/16 11:27:57;;;;;;;4.27;1.67;;;;;;;;;;5019538;28;20224;-73
2023/01/16 11:30:31;;;;;;;3.37;1.80;;;;;;;;;;5015916;28;20183;-73
2023/01/16 11:32:58;;;;;;;3.60;2.47;;;;;;;;;;5018542;28;20201;-73
2023/01/16 11:35:31;;;;;;;3.83;2.57;;;;;;;;;;5019147;28;20183;-73
2023/01/16 11:37:59;;;;;;;3.10;2.30;;;;;;;;;;5019760;28;20569;-73
2023/01/16 11:40:26;;;;;;;6.37;4.27;;;;;;;;;;5015386;28;20260;-73
2023/01/16 11:48:28;;;;;;;3.00;1.90;;;;;;;;;;5020866;28;20174;-73
2023/01/16 11:50:58;;;;;;;2.00;1.33;;;;;;;;;;5024302;28;20382;-74
2023/01/16 11:53:31;;;;;;;2.13;1.50;;;;;;;;;;5021538;28;20220;-74
2023/01/16 11:55:58;;;;;;;2.40;2.10;;;;;;;;;;5021389;28;20201;-75
2023/01/16 11:58:24;;;;;;;1.30;1.20;;;;;;;;;;5023320;28;20179;-73
2023/01/16 12:00:53;;;;;;;1.93;1.53;;;;;;;;;;5029737;28;20226;-72
2023/01/16 12:03:30;;;;;;;5.27;3.90;;;;;;;;;;5019199;28;20202;-76
2023/01/16 12:06:02;;;;;;;1.40;1.30;;;;;;;;;;5017907;28;20179;-72
2023/01/16 12:08:47;;;;;;;2.77;1.63;;;;;;;;;;5020107;28;20872;-72
2023/01/16 12:11:13;;;;;;;1.50;1.20;;;;;;;;;;5020324;28;20187;-73
2023/01/16 12:14:18;;;;;;;1.77;1.03;;;;;;;;;;5021630;28;20661;-74
2023/01/16 12:16:59;;;;;;;1.70;1.60;;;;;;;;;;5012860;28;20191;-73
2023/01/16 12:19:28;;;;;;;2.40;1.87;;;;;;;;;;4991998;28;20563;-73
2023/01/16 12:22:00;;;;;;;1.63;1.20;;;;;;;;;;5017697;28;20199;-73
2023/01/16 12:24:31;;;;;;;2.50;1.10;;;;;;;;;;5016594;28;20183;-73
2023/01/16 12:27:22;;;;;;;2.20;1.37;;;;;;;;;;5008137;28;20592;-72
2023/01/16 12:30:11;;;;;;;1.33;0.90;;;;;;;;;;4991077;28;20179;-74
2023/01/16 12:32:43;;;;;;;1.43;0.90;;;;;;;;;;5042085;28;20244;-73
2023/01/16 12:35:15;;;;;;;1.30;1.00;;;;;;;;;;5020666;28;20673;-73
2023/01/16 12:37:44;;;;;;;1.33;0.93;;;;;;;;;;5020343;28;20179;-74
2023/01/16 12:40:16;;;;;;;1.27;0.90;;;;;;;;;;4990847;28;20230;-73
2023/01/16 12:43:20;;;;;;;6.53;1.30;;;;;;;;;;5024497;28;20717;-73
2023/01/16 12:45:59;;;;;;;1.43;1.17;;;;;;;;;;5020196;28;20197;-74
2023/01/16 12:48:25;;;;;;;1.57;1.07;;;;;;;;;;5017661;28;20192;-74
2023/01/16 12:50:55;;;;;;;1.30;1.10;;;;;;;;;;5001282;28;20285;-74
2023/01/16 12:53:42;;;;;;;1.50;0.93;;;;;;;;;;5021300;28;20763;-74
2023/01/16 12:56:24;;;;;;;2.63;0.80;;;;;;;;;;4995065;28;20976;-72
2023/01/16 12:58:56;;;;;;;1.27;0.87;;;;;;;;;;5020240;28;20233;-72
2023/01/16 13:01:25;;;;;;;1.60;0.83;;;;;;;;;;5019761;28;20182;-72
2023/01/16 13:03:54;;;;;;;1.23;1.00;;;;;;;;;;5015471;28;20262;-73
2023/01/16 13:06:40;;;;;;;1.07;0.97;;;;;;;;;;5018017;28;20179;-72
2023/01/16 13:09:17;;;;;;;1.17;1.00;;;;;;;;;;5021130;28;20198;-74
2023/01/16 13:14:34;;;;;;;1.33;1.20;;;;;;;;;;5019894;28;20221;-72
2023/01/16 13:17:06;;;;;;;1.83;1.00;;;;;;;;;;5026757;28;20185;-72
2023/01/16 13:19:37;;;;;;;0.90;0.90;;;;;;;;;;5017387;28;20202;-72
2023/01/16 13:22:26;;;;;;;1.10;1.00;;;;;;;;;;5012474;28;20278;-72
2023/01/16 13:24:54;;;;;;;2.07;1.30;;;;;;;;;;5014157;28;20673;-72
2023/01/16 13:27:24;;;;;;;1.20;1.10;;;;;;;;;;5027132;28;20179;-72
2023/01/16 13:29:56;;;;;;;1.47;1.30;;;;;;;;;;5015401;28;20546;-72
2023/01/16 13:32:26;;;;;;;1.43;1.20;;;;;;;;;;5007507;28;20770;-72
2023/01/16 13:34:55;;;;;;;1.43;1.20;;;;;;;;;;5016822;28;20249;-72
2023/01/16 13:37:34;;;;;;;1.40;1.27;;;;;;;;;;5020978;28;20208;-72
2023/01/16 13:40:06;;;;;;;1.70;1.40;;;;;;;;;;5031138;28;20237;-72
2023/01/16 13:42:33;;;;;;;1.27;1.17;;;;;;;;;;5015638;28;20223;-72
2023/01/16 13:47:52;;;;;;;1.30;1.07;;;;;;;;;;5017712;28;20662;-72
2023/01/16 13:50:18;;;;;;;1.30;1.13;;;;;;;;;;5019508;28;20277;-72
2023/01/16 13:52:44;;;;;;;1.50;1.20;;;;;;;;;;5014941;28;20736;-72
2023/01/16 13:55:20;;;;;;;2.90;1.40;;;;;;;;;;5017098;28;20182;-72
2023/01/16 13:57:47;;;;;;;1.87;1.50;;;;;;;;;;5021432;28;20181;-72
2023/01/16 14:00:13;;;;;;;1.47;1.23;;;;;;;;;;5019681;28;20701;-73
2023/01/16 14:02:41;;;;;;;1.90;1.60;;;;;;;;;;5021021;28;20720;-73
2023/01/16 14:05:07;;;;;;;1.50;1.40;;;;;;;;;;5012884;28;20210;-73
2023/01/16 14:10:41;;;;;;;2.70;1.23;;;;;;;;;;5011705;28;20193;-73
2023/01/16 14:13:23;;;;;;;1.30;1.20;;;;;;;;;;5016766;28;20245;-73
2023/01/16 14:18:48;;;;;;;1.37;0.90;;;;;;;;;;5021369;28;20197;-74
2023/01/16 14:21:21;;;;;;;2.53;1.00;;;;;;;;;;5023789;28;20837;-74
2023/01/16 14:24:05;;;;;;;0.93;0.80;;;;;;;;;;5021810;28;20249;-74
2023/01/16 14:26:37;;;;;;;0.93;0.80;;;;;;;;;;5024192;28;20182;-74
2023/01/16 14:29:30;;;;;;;0.70;0.70;;;;;;;;;;5026258;28;20562;-74
2023/01/16 14:32:02;;;;;;;1.07;0.90;;;;;;;;;;5014335;28;20199;-74
2023/01/16 14:34:32;;;;;;;1.57;1.20;;;;;;;;;;5021443;28;20214;-74
2023/01/16 14:37:03;;;;;;;1.50;1.40;;;;;;;;;;5013924;28;20245;-73
2023/01/16 14:39:33;;;;;;;1.30;1.00;;;;;;;;;;5017527;28;20218;-74
2023/01/16 14:56:35;;;;;;;1.20;1.10;;;;;;;;;;5015825;28;20186;-74
2023/01/16 14:59:04;;;;;;;4.33;1.90;;;;;;;;;;5008586;28;20219;-73
2023/01/16 15:05:01;;;;;;;2.20;1.67;;;;;;;;;;5016947;28;20191;-74
2023/01/16 15:07:32;;;;;;;1.40;1.00;;;;;;;;;;5017694;28;20190;-74
2023/01/16 15:10:05;;;;;;;8.03;5.70;;;;;;;;;;5017095;28;20183;-74
2023/01/16 15:12:39;;;;;;;1.43;1.20;;;;;;;;;;5020137;28;20290;-74
2023/01/16 15:15:05;;;;;;;3.03;0.93;;;;;;;;;;5014909;28;20610;-74
2023/01/16 15:23:26;;;;;;;1.00;0.90;;;;;;;;;;5029280;28;20581;-73
2023/01/16 15:26:00;;;;;;;0.80;0.70;;;;;;;;;;5022082;28;20184;-73
2023/01/16 15:28:26;;;;;;;1.47;0.70;;;;;;;;;;5023152;28;20254;-73
2023/01/16 15:30:54;;;;;;;1.43;0.83;;;;;;;;;;5023281;28;20179;-74
2023/01/16 15:33:48;;;;;;;1.20;0.80;;;;;;;;;;5025661;28;20615;-73
2023/01/16 15:36:25;;;;;;;0.90;0.80;;;;;;;;;;5022733;28;20181;-73
2023/01/16 15:38:55;;;;;;;1.63;1.00;;;;;;;;;;5018249;28;20186;-73
2023/01/16 15:47:23;;;;;;;0.93;0.70;;;;;;;;;;5021192;28;20646;-74
2023/01/16 15:49:49;;;;;;;1.43;0.70;;;;;;;;;;5017948;28;20926;-73
2023/01/16 15:52:15;;;;;;;0.70;0.57;;;;;;;;;;5029222;28;20208;-76
2023/01/16 15:54:41;;;;;;;0.93;0.60;;;;;;;;;;5025510;28;20175;-76
2023/01/16 15:57:14;;;;;;;0.60;0.60;;;;;;;;;;5018733;28;20214;-77
2023/01/16 15:59:49;;;;;;;0.65;0.60;;;;;;;;;;5019891;28;20437;-78
2023/01/16 16:02:20;;;;;;;1.23;0.70;;;;;;;;;;5018353;28;20211;-76
2023/01/16 16:04:48;;;;;;;1.10;0.60;;;;;;;;;;5017496;28;20274;-75
2023/01/16 16:07:15;;;;;;;0.80;0.60;;;;;;;;;;5025423;28;20740;-75
2023/01/16 16:09:44;;;;;;;0.80;0.60;;;;;;;;;;5022054;28;20442;-76
2023/01/16 16:12:10;;;;;;;0.70;0.60;;;;;;;;;;5022395;28;20922;-75
2023/01/16 16:20:30;;;;;;;0.77;0.70;;;;;;;;;;5025228;28;20206;-75
2023/01/16 16:23:14;;;;;;;1.03;0.60;;;;;;;;;;5026548;28;20373;-75
2023/01/16 16:25:48;;;;;;;1.70;0.70;;;;;;;;;;5019117;28;20187;-76
2023/01/16 16:28:40;;;;;;;0.70;0.60;;;;;;;;;;5019530;28;20196;-75
2023/01/16 16:31:16;;;;;;;1.20;1.07;;;;;;;;;;5009147;28;20669;-75
2023/01/16 16:33:43;;;;;;;1.33;0.90;;;;;;;;;;5027437;28;20276;-75
2023/01/16 16:36:14;;;;;;;1.40;0.80;;;;;;;;;;5016509;28;20425;-75
2023/01/16 16:38:40;;;;;;;0.63;0.63;;;;;;;;;;5027879;28;20187;-76